createdAt,value
2022-12-16T00:01:09.870Z,43.73
2022-12-16T00:03:41.818Z,40.90
2022-12-16T00:06:11.485Z,40.73
2022-12-16T00:08:40.581Z,44.90
2022-12-16T00:11:09.804Z,39.50
2022-12-16T00:13:40.251Z,43.80
2022-12-16T00:16:09.712Z,41.20
2022-12-16T00:18:37.948Z,40.63
2022-12-16T00:21:06.420Z,41.70
2022-12-16T00:23:36.706Z,44.87
2022-12-16T00:26:05.122Z,44.97
2022-12-16T00:28:33.526Z,42.17
2022-12-16T00:31:01.703Z,43.93
2022-12-16T00:33:30.888Z,41.10
2022-12-16T00:35:59.470Z,41.60
2022-12-16T00:38:28.466Z,42.93
2022-12-16T00:40:58.074Z,40.00
2022-12-16T00:43:26.302Z,40.93
2022-12-16T00:45:54.671Z,47.87
2022-12-16T00:48:23.391Z,39.50
2022-12-16T00:50:52.116Z,41.47
2022-12-16T00:53:20.460Z,38.93
2022-12-16T00:55:48.735Z,43.27
2022-12-16T00:58:18.300Z,40.77
2022-12-16T01:00:46.717Z,39.33
2022-12-16T01:03:21.102Z,40.30
2022-12-16T01:05:49.751Z,42.10
2022-12-16T01:08:18.248Z,39.10
2022-12-16T01:10:51.942Z,39.67
2022-12-16T01:13:22.248Z,39.57
2022-12-16T01:15:50.506Z,41.57
2022-12-16T01:18:18.947Z,42.43
2022-12-16T01:20:47.218Z,42.20
2022-12-16T01:23:15.488Z,37.70
2022-12-16T01:25:43.749Z,36.40
2022-12-16T01:28:12.012Z,43.33
2022-12-16T01:30:41.759Z,36.70
2022-12-16T01:33:11.058Z,44.77
2022-12-16T01:35:55.615Z,41.30
2022-12-16T01:38:24.709Z,38.87
2022-12-16T01:40:55.094Z,41.73
2022-12-16T01:43:26.095Z,37.07
2022-12-16T01:45:56.991Z,43.77
2022-12-16T01:48:32.052Z,39.03
2022-12-16T01:51:03.330Z,40.37
2022-12-16T01:53:32.143Z,39.20
2022-12-16T01:56:01.969Z,38.20
2022-12-16T01:58:31.920Z,40.43
2022-12-16T02:01:03.608Z,37.60
2022-12-16T02:03:34.309Z,38.97
2022-12-16T02:06:03.181Z,39.97
2022-12-16T02:08:31.640Z,39.40
2022-12-16T02:11:14.764Z,41.80
2022-12-16T02:13:51.297Z,41.00
2022-12-16T02:16:23.977Z,41.23
2022-12-16T02:18:57.252Z,39.93
2022-12-16T02:21:43.468Z,39.77
2022-12-16T02:24:29.385Z,41.57
2022-12-16T02:27:21.225Z,42.67
2022-12-16T02:30:07.579Z,42.03
2022-12-16T02:32:42.908Z,38.73
2022-12-16T02:35:12.303Z,38.90
2022-12-16T02:37:42.971Z,41.13
2022-12-16T02:40:16.000Z,39.30
2022-12-16T02:42:47.468Z,40.20
2022-12-16T02:45:17.751Z,44.20
2022-12-16T02:47:48.061Z,42.70
2022-12-16T02:50:19.316Z,38.57
2022-12-16T02:52:47.815Z,48.57
2022-12-16T02:55:16.592Z,39.07
2022-12-16T02:58:00.887Z,38.07
2022-12-16T03:00:30.887Z,40.47
2022-12-16T03:03:03.259Z,39.47
2022-12-16T03:05:33.769Z,40.10
2022-12-16T03:08:03.753Z,38.07
2022-12-16T03:10:33.535Z,37.93
2022-12-16T03:13:03.223Z,41.33
2022-12-16T03:15:33.749Z,36.23
2022-12-16T03:18:04.537Z,38.43
2022-12-16T03:20:36.514Z,40.50
2022-12-16T03:23:06.800Z,40.73
2022-12-16T03:25:36.649Z,36.40
2022-12-16T03:28:08.610Z,38.53
2022-12-16T03:30:38.412Z,38.07
2022-12-16T03:33:10.865Z,38.13
2022-12-16T03:35:41.350Z,35.40
2022-12-16T03:38:11.956Z,36.10
2022-12-16T03:40:41.311Z,36.20
2022-12-16T03:43:10.513Z,38.00
2022-12-16T03:45:40.395Z,37.23
2022-12-16T03:48:11.373Z,37.97
2022-12-16T03:50:40.605Z,38.77
2022-12-16T03:53:09.258Z,36.70
2022-12-16T03:55:37.501Z,36.00
2022-12-16T03:58:05.827Z,35.60
2022-12-16T04:00:34.097Z,35.67
2022-12-16T04:03:02.598Z,36.47
2022-12-16T04:05:32.427Z,35.10
2022-12-16T04:08:02.251Z,42.73
2022-12-16T04:10:49.338Z,36.57
2022-12-16T04:13:35.799Z,34.73
2022-12-16T04:16:22.125Z,34.77
2022-12-16T04:19:08.392Z,39.30
2022-12-16T04:21:55.956Z,34.00
2022-12-16T04:24:26.862Z,39.43
2022-12-16T04:27:15.633Z,37.27
2022-12-16T04:29:58.413Z,38.47
2022-12-16T04:32:26.854Z,41.57
2022-12-16T04:34:54.123Z,34.37
2022-12-16T04:37:41.341Z,36.07
2022-12-16T04:40:27.679Z,39.87
2022-12-16T04:43:13.670Z,38.63
2022-12-16T04:45:59.376Z,34.87
2022-12-16T04:48:45.266Z,35.63
2022-12-16T04:51:31.063Z,36.13
2022-12-16T04:54:18.514Z,35.77
2022-12-16T04:57:04.530Z,36.63
2022-12-16T04:59:50.640Z,35.83
2022-12-16T05:02:36.911Z,36.90
2022-12-16T05:05:22.808Z,34.90
2022-12-16T05:08:08.714Z,37.43
2022-12-16T05:10:55.897Z,37.80
2022-12-16T05:13:41.866Z,39.23
2022-12-16T05:16:27.980Z,36.13
2022-12-16T05:19:14.143Z,35.93
2022-12-16T05:22:00.106Z,38.67
2022-12-16T05:24:51.230Z,37.53
2022-12-16T05:27:39.888Z,38.00
2022-12-16T05:30:30.544Z,35.07
2022-12-16T05:33:19.377Z,36.93
2022-12-16T05:36:05.382Z,35.23
2022-12-16T05:38:51.415Z,34.73
2022-12-16T05:41:37.547Z,35.90
2022-12-16T05:44:24.911Z,40.10
2022-12-16T05:47:11.041Z,34.00
2022-12-16T05:49:56.906Z,35.60
2022-12-16T05:52:43.020Z,40.13
2022-12-16T05:55:33.736Z,36.27
2022-12-16T05:58:20.035Z,34.07
2022-12-16T06:01:07.277Z,34.03
2022-12-16T06:03:53.362Z,37.03
2022-12-16T06:06:39.427Z,38.97
2022-12-16T06:09:25.255Z,38.57
2022-12-16T06:12:11.318Z,41.90
2022-12-16T06:14:56.993Z,42.97
2022-12-16T06:17:44.149Z,40.90
2022-12-16T06:20:30.249Z,38.40
2022-12-16T06:23:17.897Z,37.93
2022-12-16T06:26:07.302Z,39.93
2022-12-16T06:28:55.839Z,42.50
2022-12-16T06:31:42.067Z,40.77
2022-12-16T06:34:29.495Z,38.80
2022-12-16T06:37:15.463Z,44.53
2022-12-16T06:40:01.359Z,36.40
2022-12-16T06:42:47.130Z,39.10
2022-12-16T06:45:35.107Z,38.03
2022-12-16T06:48:21.417Z,40.17
2022-12-16T06:51:09.045Z,44.10
2022-12-16T06:53:54.852Z,101.87
2022-12-16T06:56:40.934Z,95.60
2022-12-16T06:59:26.893Z,71.47
2022-12-16T07:02:13.104Z,79.57
2022-12-16T07:04:59.467Z,70.40
2022-12-16T07:07:47.233Z,67.27
2022-12-16T07:10:33.409Z,45.53
2022-12-16T07:13:15.908Z,48.80
2022-12-16T07:16:01.915Z,48.97
2022-12-16T07:18:47.895Z,62.37
2022-12-16T07:21:34.022Z,64.43
2022-12-16T07:24:20.521Z,57.67
2022-12-16T07:27:06.481Z,67.40
2022-12-16T07:29:52.233Z,65.17
2022-12-16T07:32:38.799Z,72.87
2022-12-16T07:35:24.890Z,70.87
2022-12-16T07:38:22.423Z,67.53
2022-12-16T07:41:09.523Z,73.27
2022-12-16T07:43:55.291Z,76.90
2022-12-16T07:46:46.431Z,82.20
2022-12-16T07:49:32.552Z,74.83
2022-12-16T07:52:18.392Z,82.20
2022-12-16T07:55:04.150Z,85.33
2022-12-16T07:57:51.637Z,96.50
2022-12-16T08:00:38.113Z,92.70
2022-12-16T08:03:23.897Z,87.80
2022-12-16T08:06:10.111Z,82.53
2022-12-16T08:08:56.175Z,96.83
2022-12-16T08:11:42.198Z,93.33
2022-12-16T08:14:29.458Z,109.80
2022-12-16T08:17:15.612Z,82.60
2022-12-16T08:20:09.797Z,96.03
2022-12-16T08:22:55.946Z,100.40
2022-12-16T08:25:50.330Z,96.03
2022-12-16T08:28:37.086Z,96.17
2022-12-16T08:31:24.695Z,94.17
2022-12-16T08:34:10.603Z,88.70
2022-12-16T08:36:56.654Z,91.97
2022-12-16T08:39:42.750Z,91.07
2022-12-16T08:42:28.991Z,88.37
2022-12-16T08:45:15.155Z,97.47
2022-12-16T08:48:02.769Z,96.30
2022-12-16T08:50:48.457Z,88.17
2022-12-16T08:53:35.057Z,98.43
2022-12-16T08:56:21.004Z,89.63
2022-12-16T08:59:07.092Z,84.77
2022-12-16T09:01:55.614Z,86.17
2022-12-16T09:04:43.259Z,99.67
2022-12-16T09:07:29.013Z,88.80
2022-12-16T09:10:15.246Z,90.80
2022-12-16T09:13:01.184Z,83.00
2022-12-16T09:15:47.261Z,86.83
2022-12-16T09:18:33.365Z,76.57
2022-12-16T09:21:20.618Z,76.67
2022-12-16T09:24:06.551Z,77.00
2022-12-16T09:26:53.082Z,74.47
2022-12-16T09:29:43.576Z,74.80
2022-12-16T09:32:31.021Z,69.43
2022-12-16T09:35:16.984Z,71.60
2022-12-16T09:38:06.753Z,72.23
2022-12-16T09:40:53.118Z,76.50
2022-12-16T09:43:50.612Z,69.17
2022-12-16T09:46:40.761Z,61.50
2022-12-16T09:49:32.725Z,67.03
2022-12-16T09:52:19.087Z,66.30
2022-12-16T09:55:07.211Z,62.53
2022-12-16T09:57:54.592Z,58.03
2022-12-16T10:00:42.240Z,55.87
2022-12-16T10:03:34.448Z,62.43
2022-12-16T10:06:22.982Z,54.63
2022-12-16T10:09:11.903Z,55.67
2022-12-16T10:12:03.482Z,51.27
2022-12-16T10:14:53.755Z,46.73
2022-12-16T10:17:41.978Z,43.23
2022-12-16T10:20:33.764Z,44.63
2022-12-16T10:23:24.553Z,48.23
2022-12-16T10:26:12.464Z,45.37
2022-12-16T10:29:04.722Z,43.80
2022-12-16T10:31:50.525Z,38.57
2022-12-16T10:34:38.939Z,38.27
2022-12-16T10:37:24.979Z,38.60
2022-12-16T10:40:12.081Z,38.70
2022-12-16T10:43:02.151Z,38.10
2022-12-16T10:45:52.469Z,37.23
2022-12-16T10:48:50.060Z,38.30
2022-12-16T10:51:40.573Z,35.47
2022-12-16T10:54:36.010Z,36.90
2022-12-16T10:57:24.615Z,38.27
2022-12-16T11:00:09.867Z,36.93
2022-12-16T11:02:57.187Z,36.83
2022-12-16T11:05:49.386Z,42.33
2022-12-16T11:08:43.021Z,37.50
2022-12-16T11:11:32.668Z,33.87
2022-12-16T11:14:36.442Z,33.77
2022-12-16T11:17:33.614Z,32.50
2022-12-16T11:20:27.813Z,33.83
2022-12-16T11:23:26.963Z,31.70
2022-12-16T11:26:27.163Z,34.90
2022-12-16T11:29:22.312Z,36.33
2022-12-16T11:32:09.198Z,32.73
2022-12-16T11:34:55.873Z,31.60
2022-12-16T11:37:43.860Z,33.17
2022-12-16T11:40:33.463Z,30.83
2022-12-16T11:43:20.394Z,35.13
2022-12-16T11:46:06.758Z,32.20
2022-12-16T11:48:56.322Z,33.60
2022-12-16T11:51:44.217Z,32.63
2022-12-16T11:54:34.766Z,33.97
2022-12-16T11:57:22.196Z,34.17
2022-12-16T12:00:11.501Z,36.53
2022-12-16T12:03:01.266Z,32.20
2022-12-16T12:05:48.847Z,30.60
2022-12-16T12:08:37.812Z,33.30
2022-12-16T12:11:28.853Z,29.93
2022-12-16T12:14:20.583Z,31.77
2022-12-16T12:17:14.566Z,31.37
2022-12-16T12:20:04.128Z,32.93
2022-12-16T12:22:53.913Z,31.87
2022-12-16T12:25:42.413Z,30.57
2022-12-16T12:28:34.308Z,28.50
2022-12-16T12:31:23.078Z,29.83
2022-12-16T12:34:15.461Z,33.33
2022-12-16T12:37:03.842Z,29.87
2022-12-16T12:39:52.722Z,31.50
2022-12-16T12:42:49.617Z,31.30
2022-12-16T12:45:47.345Z,32.23
2022-12-16T12:48:35.940Z,29.50
2022-12-16T12:51:26.337Z,30.93
2022-12-16T12:54:16.321Z,32.03
2022-12-16T12:57:05.862Z,29.97
2022-12-16T13:00:01.828Z,32.40
2022-12-16T13:02:52.748Z,31.97
2022-12-16T13:05:39.288Z,32.57
2022-12-16T13:08:43.588Z,32.43
2022-12-16T13:11:35.478Z,32.10
2022-12-16T13:14:21.503Z,33.90
2022-12-16T13:17:25.986Z,30.87
2022-12-16T13:20:14.611Z,33.47
2022-12-16T13:23:01.018Z,33.20
2022-12-16T13:25:56.236Z,34.03
2022-12-16T13:28:44.316Z,31.83
2022-12-16T13:31:30.517Z,32.73
2022-12-16T13:34:18.076Z,31.13
2022-12-16T13:37:12.436Z,31.17
2022-12-16T13:40:00.188Z,34.73
2022-12-16T13:43:00.575Z,37.50
2022-12-16T13:45:51.312Z,35.63
2022-12-16T13:49:07.487Z,42.33
2022-12-16T13:52:26.203Z,47.10
2022-12-16T13:55:24.374Z,63.33
2022-12-16T13:58:14.725Z,43.97
2022-12-16T14:01:01.387Z,40.27
2022-12-16T14:03:53.903Z,41.63
2022-12-16T14:06:43.375Z,41.30
2022-12-16T14:09:35.117Z,50.43
2022-12-16T14:12:24.907Z,46.83
2022-12-16T14:15:14.261Z,47.40
2022-12-16T14:18:03.304Z,53.93
2022-12-16T14:20:51.740Z,59.67
2022-12-16T14:23:56.515Z,47.20
2022-12-16T14:26:43.262Z,44.47
2022-12-16T14:29:35.042Z,43.10
2022-12-16T14:32:26.433Z,51.60
2022-12-16T14:35:20.753Z,47.37
2022-12-16T14:38:17.958Z,43.27
2022-12-16T14:41:09.677Z,44.20
2022-12-16T14:43:55.744Z,41.63
2022-12-16T14:46:47.378Z,44.23
2022-12-16T14:49:37.820Z,46.33
2022-12-16T14:52:30.650Z,46.23
2022-12-16T14:55:16.558Z,48.93
2022-12-16T14:58:02.588Z,46.70
2022-12-16T15:00:48.690Z,47.67
2022-12-16T15:03:40.521Z,52.53
2022-12-16T15:06:30.825Z,52.53
2022-12-16T15:09:20.461Z,48.63
2022-12-16T15:12:07.380Z,49.07
2022-12-16T15:14:54.951Z,46.87
2022-12-16T15:17:43.288Z,49.93
2022-12-16T15:20:34.545Z,47.27
2022-12-16T15:23:20.465Z,44.87
2022-12-16T15:26:09.367Z,43.60
2022-12-16T15:28:59.011Z,44.13
2022-12-16T15:31:46.765Z,46.37
2022-12-16T15:34:46.280Z,45.90
2022-12-16T15:37:43.860Z,47.60
2022-12-16T15:40:40.816Z,50.40
2022-12-16T15:43:39.560Z,51.30
2022-12-16T15:46:25.366Z,51.73
2022-12-16T15:49:11.585Z,57.13
2022-12-16T15:52:03.320Z,54.23
2022-12-16T15:54:51.063Z,57.13
2022-12-16T15:57:44.510Z,60.50
2022-12-16T16:00:38.846Z,54.67
2022-12-16T16:03:25.034Z,52.63
2022-12-16T16:06:11.181Z,51.00
2022-12-16T16:08:57.027Z,57.00
2022-12-16T16:11:52.838Z,55.50
2022-12-16T16:14:39.024Z,61.40
2022-12-16T16:17:29.907Z,55.03
2022-12-16T16:20:15.567Z,56.40
2022-12-16T16:22:57.792Z,54.23
2022-12-16T16:25:44.277Z,53.80
2022-12-16T16:28:31.456Z,52.13
2022-12-16T16:31:17.495Z,47.97
2022-12-16T16:34:03.273Z,49.23
2022-12-16T16:37:03.814Z,54.20
2022-12-16T16:39:49.788Z,53.63
2022-12-16T16:42:35.845Z,52.73
2022-12-16T16:45:23.603Z,54.43
2022-12-16T16:48:09.575Z,54.80
2022-12-16T16:50:55.584Z,56.13
2022-12-16T16:53:41.540Z,59.33
2022-12-16T16:56:28.553Z,54.90
2022-12-16T16:59:14.593Z,56.00
2022-12-16T17:02:02.339Z,56.10
2022-12-16T17:04:48.185Z,59.40
2022-12-16T17:07:34.383Z,61.90
2022-12-16T17:10:20.251Z,58.37
2022-12-16T17:13:04.760Z,56.77
2022-12-16T17:15:57.944Z,61.90
2022-12-16T17:18:50.547Z,62.43
2022-12-16T17:21:38.009Z,57.87
2022-12-16T17:24:24.111Z,56.37
2022-12-16T17:27:09.853Z,58.13
2022-12-16T17:29:55.960Z,59.67
2022-12-16T17:32:41.793Z,61.03
2022-12-16T17:35:30.400Z,63.73
2022-12-16T17:38:16.660Z,55.73
2022-12-16T17:41:17.025Z,60.77
2022-12-16T17:44:02.999Z,58.83
2022-12-16T17:46:49.104Z,59.03
2022-12-16T17:49:35.107Z,56.63
2022-12-16T17:52:22.607Z,58.63
2022-12-16T17:55:08.776Z,57.10
2022-12-16T17:57:55.002Z,58.07
2022-12-16T18:00:41.409Z,59.37
2022-12-16T18:03:27.190Z,53.73
2022-12-16T18:06:15.725Z,57.73
2022-12-16T18:09:03.147Z,53.47
2022-12-16T18:11:49.417Z,58.20
2022-12-16T18:14:36.544Z,45.40
2022-12-16T18:17:22.371Z,51.27
2022-12-16T18:20:08.228Z,48.40
2022-12-16T18:22:54.220Z,55.17
2022-12-16T18:25:41.835Z,52.53
2022-12-16T18:28:27.553Z,53.77
2022-12-16T18:31:13.455Z,60.43
2022-12-16T18:33:59.339Z,60.00
2022-12-16T18:36:45.405Z,60.10
2022-12-16T18:39:31.419Z,63.67
2022-12-16T18:42:19.022Z,59.87
2022-12-16T18:45:04.857Z,65.97
2022-12-16T18:47:56.176Z,71.30
2022-12-16T18:50:42.319Z,70.70
2022-12-16T18:53:28.390Z,82.70
2022-12-16T18:56:20.916Z,86.23
2022-12-16T18:59:08.118Z,82.70
2022-12-16T19:01:54.325Z,79.37
2022-12-16T19:04:40.253Z,85.17
2022-12-16T19:07:26.193Z,83.50
2022-12-16T19:10:12.217Z,82.57
2022-12-16T19:12:58.308Z,84.27
2022-12-16T19:15:45.691Z,92.63
2022-12-16T19:18:31.951Z,78.27
2022-12-16T19:21:17.598Z,80.77
2022-12-16T19:24:03.692Z,76.27
2022-12-16T19:26:49.785Z,76.93
2022-12-16T19:29:50.223Z,80.60
2022-12-16T19:32:37.891Z,77.27
2022-12-16T19:35:26.854Z,81.80
2022-12-16T19:38:12.746Z,72.10
2022-12-16T19:40:59.159Z,71.70
2022-12-16T19:43:45.094Z,73.60
2022-12-16T19:46:31.159Z,72.20
2022-12-16T19:49:18.875Z,73.57
2022-12-16T19:52:04.994Z,73.53
2022-12-16T19:54:51.786Z,70.70
2022-12-16T19:57:37.982Z,71.77
2022-12-16T20:00:24.433Z,77.47
2022-12-16T20:03:07.132Z,73.00
2022-12-16T20:05:55.148Z,66.57
2022-12-16T20:08:42.337Z,68.63
2022-12-16T20:11:28.757Z,74.63
2022-12-16T20:14:15.445Z,75.00
2022-12-16T20:17:01.690Z,76.93
2022-12-16T20:19:47.703Z,67.87
2022-12-16T20:22:36.409Z,73.50
2022-12-16T20:25:24.451Z,81.70
2022-12-16T20:28:10.618Z,145.10
2022-12-16T20:31:04.747Z,116.73
2022-12-16T20:33:51.062Z,98.73
2022-12-16T20:36:38.023Z,119.30
2022-12-16T20:39:29.309Z,108.43
2022-12-16T20:42:15.131Z,138.97
2022-12-16T20:45:01.388Z,135.33
2022-12-16T20:47:49.630Z,115.73
2022-12-16T20:50:44.253Z,116.33
2022-12-16T20:53:26.533Z,119.73
2022-12-16T20:56:13.876Z,110.10
2022-12-16T20:59:14.347Z,122.80
2022-12-16T21:02:22.102Z,107.77
2022-12-16T21:05:06.163Z,95.80
2022-12-16T21:07:52.264Z,101.67
2022-12-16T21:10:39.435Z,99.13
2022-12-16T21:13:27.046Z,87.37
2022-12-16T21:16:13.203Z,79.23
2022-12-16T21:18:59.071Z,73.07
2022-12-16T21:21:45.268Z,58.53
2022-12-16T21:24:31.355Z,55.97
2022-12-16T21:27:17.375Z,52.10
2022-12-16T21:30:04.719Z,47.07
2022-12-16T21:32:50.939Z,45.37
2022-12-16T21:35:39.695Z,44.77
2022-12-16T21:38:27.663Z,43.83
2022-12-16T21:41:13.882Z,37.37
2022-12-16T21:44:00.060Z,39.33
2022-12-16T21:46:47.627Z,36.87
2022-12-16T21:49:33.755Z,35.83
2022-12-16T21:52:19.839Z,37.97
2022-12-16T21:55:05.949Z,38.17
2022-12-16T21:57:51.894Z,41.17
2022-12-16T22:00:39.731Z,37.50
2022-12-16T22:03:26.959Z,41.27
2022-12-16T22:06:12.865Z,38.87
2022-12-16T22:08:58.591Z,37.77
2022-12-16T22:11:44.665Z,38.77
2022-12-16T22:14:30.524Z,51.90
2022-12-16T22:17:16.613Z,53.50
2022-12-16T22:20:04.069Z,64.70
2022-12-16T22:22:49.946Z,67.43
2022-12-16T22:25:36.226Z,66.43
2022-12-16T22:28:22.171Z,63.43
2022-12-16T22:31:15.612Z,73.23
2022-12-16T22:34:02.158Z,80.03
2022-12-16T22:36:51.611Z,83.07
2022-12-16T22:39:44.413Z,81.63
2022-12-16T22:42:30.759Z,65.90
2022-12-16T22:45:16.566Z,57.00
2022-12-16T22:48:02.564Z,56.23
2022-12-16T22:50:50.615Z,66.27
2022-12-16T22:53:38.178Z,79.10
2022-12-16T22:56:24.314Z,73.80
2022-12-16T22:59:10.196Z,56.87
2022-12-16T23:05:02.473Z,63.70
2022-12-16T23:07:48.489Z,104.27
2022-12-16T23:10:36.117Z,63.87
2022-12-16T23:13:22.346Z,64.70
2022-12-16T23:16:08.377Z,50.80
2022-12-16T23:18:56.472Z,72.07
2022-12-16T23:21:43.043Z,53.83
2022-12-16T23:24:29.260Z,78.13
2022-12-16T23:27:16.901Z,127.50
2022-12-16T23:30:02.994Z,93.63
2022-12-16T23:32:49.350Z,76.73
2022-12-16T23:35:51.598Z,76.83
2022-12-16T23:38:38.064Z,93.57
2022-12-16T23:41:23.956Z,87.70
2022-12-16T23:44:11.625Z,68.13
2022-12-16T23:46:57.680Z,115.83
2022-12-16T23:49:43.518Z,87.63
2022-12-16T23:52:29.439Z,92.17
2022-12-16T23:55:15.616Z,66.50
2022-12-16T23:58:01.682Z,71.93
